createdAt,value
2022-08-07T00:00:41.488Z,482.92
2022-08-07T00:02:36.810Z,542.55
2022-08-07T00:03:08.775Z,622.60
2022-08-07T00:04:11.381Z,112.60
2022-08-07T00:05:20.288Z,683.85
2022-08-07T00:06:29.557Z,648.03
2022-08-07T00:07:40.802Z,756.58
2022-08-07T00:08:44.405Z,780.35
2022-08-07T00:09:59.189Z,873.00
2022-08-07T00:11:13.918Z,874.13
2022-08-07T00:12:22.186Z,884.43
2022-08-07T00:13:30.600Z,886.38
2022-08-07T00:14:35.438Z,771.13
2022-08-07T00:15:46.789Z,764.17
2022-08-07T00:16:53.269Z,893.20
2022-08-07T00:17:57.926Z,899.97
2022-08-07T00:19:05.611Z,899.45
2022-08-07T00:20:09.163Z,901.42
2022-08-07T00:21:57.361Z,884.15
2022-08-07T00:22:51.755Z,890.67
2022-08-07T00:23:56.598Z,882.28
2022-08-07T00:24:58.788Z,857.83
2022-08-07T00:26:18.867Z,681.72
2022-08-07T00:27:29.135Z,561.10
2022-08-07T00:28:56.789Z,384.95
2022-08-07T00:29:59.275Z,392.00
2022-08-07T00:31:06.279Z,310.52
2022-08-07T00:32:14.976Z,148.68
2022-08-07T00:33:20.182Z,84.22
2022-08-07T00:34:22.257Z,219.15
2022-08-07T00:35:30.736Z,78.05
2022-08-07T00:36:35.423Z,105.53
2022-08-07T00:37:48.132Z,53.80
2022-08-07T00:38:55.685Z,6.72
2022-08-07T00:39:59.913Z,5.78
2022-08-07T00:41:05.138Z,14.40
2022-08-07T00:42:12.241Z,63.47
2022-08-07T00:44:00.229Z,41.17
2022-08-07T00:44:42.105Z,12.77
2022-08-07T00:45:46.616Z,2.72
2022-08-07T00:46:51.550Z,30.35
2022-08-07T00:48:07.730Z,3.03
2022-08-07T00:49:24.959Z,10.05
2022-08-07T00:50:50.694Z,240.10
2022-08-07T00:51:58.448Z,9.55
2022-08-07T00:53:01.037Z,9.23
2022-08-07T00:54:08.985Z,23.13
2022-08-07T00:55:17.236Z,10.82
2022-08-07T00:56:33.799Z,10.98
2022-08-07T00:57:36.664Z,9.38
2022-08-07T00:58:46.973Z,5.53
2022-08-07T00:59:52.050Z,7.72
2022-08-07T01:00:56.834Z,1.88
2022-08-07T01:01:59.259Z,6.22
2022-08-07T01:03:04.136Z,3.05
2022-08-07T01:04:11.433Z,3.80
2022-08-07T01:05:27.805Z,3.45
2022-08-07T01:06:34.548Z,5.25
2022-08-07T01:07:38.019Z,0.80
2022-08-07T01:08:52.094Z,7.07
2022-08-07T01:10:06.668Z,12.05
2022-08-07T01:12:24.113Z,3.72
2022-08-07T01:12:43.963Z,17.23
2022-08-07T01:13:59.452Z,1.83
2022-08-07T01:15:03.927Z,4.68
2022-08-07T01:16:10.186Z,5.85
2022-08-07T01:17:13.558Z,10.15
2022-08-07T01:18:18.819Z,5.72
2022-08-07T01:19:22.878Z,6.80
2022-08-07T01:20:34.512Z,11.27
2022-08-07T01:21:49.326Z,4.80
2022-08-07T01:23:12.276Z,2.40
2022-08-07T01:24:21.247Z,3.35
2022-08-07T01:25:53.830Z,8.25
2022-08-07T01:26:53.793Z,3.80
2022-08-07T01:27:56.730Z,5.60
2022-08-07T01:29:04.904Z,12.10
2022-08-07T01:30:09.519Z,2.38
2022-08-07T01:31:17.919Z,10.55
2022-08-07T01:32:22.473Z,6.25
2022-08-07T01:33:30.184Z,5.75
2022-08-07T01:34:53.630Z,4.32
2022-08-07T01:36:05.917Z,4.60
2022-08-07T01:37:17.368Z,7.03
2022-08-07T01:38:24.926Z,8.25
2022-08-07T01:39:40.403Z,4.88
2022-08-07T01:40:44.439Z,18.05
2022-08-07T01:42:07.220Z,6.03
2022-08-07T01:43:18.856Z,22.50
2022-08-07T01:44:21.546Z,9.55
2022-08-07T01:45:37.303Z,13.07
2022-08-07T01:46:42.491Z,5.43
2022-08-07T01:48:19.636Z,9.18
2022-08-07T01:49:13.963Z,5.95
2022-08-07T01:50:22.832Z,29.02
2022-08-07T01:52:02.542Z,28.33
2022-08-07T01:53:08.681Z,78.70
2022-08-07T01:54:32.582Z,577.67
2022-08-07T01:55:42.368Z,882.30
2022-08-07T01:56:49.740Z,868.50
2022-08-07T01:58:05.832Z,751.22
2022-08-07T01:59:30.804Z,878.90
2022-08-07T02:00:45.390Z,887.65
2022-08-07T02:02:02.779Z,892.33
2022-08-07T02:03:21.177Z,881.38
2022-08-07T02:04:32.667Z,884.10
2022-08-07T02:05:43.241Z,881.70
2022-08-07T02:06:52.157Z,842.63
2022-08-07T02:08:00.565Z,779.72
2022-08-07T02:09:11.650Z,751.22
2022-08-07T02:10:36.535Z,734.30
2022-08-07T02:12:02.624Z,661.30
2022-08-07T02:14:14.563Z,554.83
2022-08-07T02:15:40.386Z,529.83
2022-08-07T02:16:43.117Z,459.00
2022-08-07T02:17:51.852Z,436.05
2022-08-07T02:18:56.143Z,435.48
2022-08-07T02:20:09.939Z,386.23
2022-08-07T02:21:25.254Z,330.67
2022-08-07T02:22:30.293Z,336.00
2022-08-07T02:23:37.841Z,333.70
2022-08-07T02:24:44.976Z,297.30
2022-08-07T02:26:31.508Z,267.55
2022-08-07T02:27:14.176Z,279.02
2022-08-07T02:28:25.360Z,276.70
2022-08-07T02:29:30.721Z,259.75
2022-08-07T02:30:38.328Z,242.55
2022-08-07T02:31:41.358Z,33.53
2022-08-07T02:33:07.273Z,225.95
2022-08-07T02:34:11.613Z,203.20
2022-08-07T02:36:28.274Z,236.03
2022-08-07T02:36:46.177Z,33.53
2022-08-07T02:37:52.483Z,180.48
2022-08-07T02:38:57.273Z,16.65
2022-08-07T02:40:30.165Z,127.50
2022-08-07T02:41:33.370Z,121.53
2022-08-07T02:42:42.877Z,123.80
2022-08-07T02:43:48.926Z,138.23
2022-08-07T02:44:55.536Z,33.30
